sensor_id;sensor_type;location;lat;lon;timestamp;P1;durP1;ratioP1;P2;durP2;ratioP2
52610;SDS011;38727;40.130;18.292;2024-03-08T00:01:43;11.20;;;6.95;;
52610;SDS011;38727;40.130;18.292;2024-03-08T00:04:14;13.73;;;7.03;;
52610;SDS011;38727;40.130;18.292;2024-03-08T00:06:44;14.60;;;6.45;;
52610;SDS011;38727;40.130;18.292;2024-03-08T00:09:19;13.77;;;6.80;;
52610;SDS011;38727;40.130;18.292;2024-03-08T00:11:49;12.43;;;6.13;;
52610;SDS011;38727;40.130;18.292;2024-03-08T00:14:22;10.35;;;5.35;;
52610;SDS011;38727;40.130;18.292;2024-03-08T00:16:57;9.82;;;3.72;;
52610;SDS011;38727;40.130;18.292;2024-03-08T00:19:28;8.75;;;3.28;;
52610;SDS011;38727;40.130;18.292;2024-03-08T00:21:58;11.65;;;6.00;;
52610;SDS011;38727;40.130;18.292;2024-03-08T00:24:30;16.92;;;7.63;;
52610;SDS011;38727;40.130;18.292;2024-03-08T00:27:02;15.55;;;8.15;;
52610;SDS011;38727;40.130;18.292;2024-03-08T00:29:33;18.30;;;8.02;;
52610;SDS011;38727;40.130;18.292;2024-03-08T00:32:07;15.18;;;8.40;;
52610;SDS011;38727;40.130;18.292;2024-03-08T00:34:38;14.32;;;7.65;;
52610;SDS011;38727;40.130;18.292;2024-03-08T00:37:08;13.45;;;7.63;;
52610;SDS011;38727;40.130;18.292;2024-03-08T00:39:40;13.82;;;7.95;;
52610;SDS011;38727;40.130;18.292;2024-03-08T00:42:12;15.55;;;7.88;;
52610;SDS011;38727;40.130;18.292;2024-03-08T00:44:43;14.15;;;7.43;;
52610;SDS011;38727;40.130;18.292;2024-03-08T00:47:14;15.68;;;7.32;;
52610;SDS011;38727;40.130;18.292;2024-03-08T00:49:45;20.27;;;8.55;;
52610;SDS011;38727;40.130;18.292;2024-03-08T00:52:16;17.15;;;7.90;;
52610;SDS011;38727;40.130;18.292;2024-03-08T00:54:47;17.30;;;8.48;;
52610;SDS011;38727;40.130;18.292;2024-03-08T00:57:17;15.02;;;7.68;;
52610;SDS011;38727;40.130;18.292;2024-03-08T00:59:49;18.02;;;8.90;;
52610;SDS011;38727;40.130;18.292;2024-03-08T01:02:21;15.20;;;8.90;;
52610;SDS011;38727;40.130;18.292;2024-03-08T01:04:51;16.65;;;8.20;;
52610;SDS011;38727;40.130;18.292;2024-03-08T01:07:21;13.30;;;7.47;;
52610;SDS011;38727;40.130;18.292;2024-03-08T01:09:52;15.05;;;7.80;;
52610;SDS011;38727;40.130;18.292;2024-03-08T01:12:24;14.18;;;7.50;;
52610;SDS011;38727;40.130;18.292;2024-03-08T01:14:55;16.92;;;7.38;;
52610;SDS011;38727;40.130;18.292;2024-03-08T01:17:26;14.68;;;8.07;;
52610;SDS011;38727;40.130;18.292;2024-03-08T01:19:58;13.90;;;5.40;;
52610;SDS011;38727;40.130;18.292;2024-03-08T01:22:29;12.00;;;6.60;;
52610;SDS011;38727;40.130;18.292;2024-03-08T01:24:59;10.43;;;5.50;;
52610;SDS011;38727;40.130;18.292;2024-03-08T01:27:33;13.82;;;7.43;;
52610;SDS011;38727;40.130;18.292;2024-03-08T01:30:07;12.15;;;6.72;;
52610;SDS011;38727;40.130;18.292;2024-03-08T01:32:41;12.80;;;6.47;;
52610;SDS011;38727;40.130;18.292;2024-03-08T01:35:13;13.38;;;7.03;;
52610;SDS011;38727;40.130;18.292;2024-03-08T01:37:44;13.27;;;6.82;;
52610;SDS011;38727;40.130;18.292;2024-03-08T01:40:14;14.32;;;7.88;;
52610;SDS011;38727;40.130;18.292;2024-03-08T01:42:45;12.07;;;6.35;;
52610;SDS011;38727;40.130;18.292;2024-03-08T01:45:17;11.50;;;6.60;;
52610;SDS011;38727;40.130;18.292;2024-03-08T01:47:49;12.93;;;6.13;;
52610;SDS011;38727;40.130;18.292;2024-03-08T01:50:19;10.10;;;5.95;;
52610;SDS011;38727;40.130;18.292;2024-03-08T01:52:50;15.20;;;6.85;;
52610;SDS011;38727;40.130;18.292;2024-03-08T01:55:21;13.02;;;6.38;;
52610;SDS011;38727;40.130;18.292;2024-03-08T01:57:51;12.40;;;6.93;;
52610;SDS011;38727;40.130;18.292;2024-03-08T02:00:24;13.23;;;7.10;;
52610;SDS011;38727;40.130;18.292;2024-03-08T02:02:58;13.80;;;7.15;;
52610;SDS011;38727;40.130;18.292;2024-03-08T02:05:28;16.55;;;7.90;;
52610;SDS011;38727;40.130;18.292;2024-03-08T02:07:59;14.25;;;7.55;;
52610;SDS011;38727;40.130;18.292;2024-03-08T02:10:30;14.70;;;9.00;;
52610;SDS011;38727;40.130;18.292;2024-03-08T02:13:00;13.35;;;6.93;;
52610;SDS011;38727;40.130;18.292;2024-03-08T02:18:24;17.38;;;8.43;;
52610;SDS011;38727;40.130;18.292;2024-03-08T02:20:57;20.00;;;9.35;;
52610;SDS011;38727;40.130;18.292;2024-03-08T02:23:28;14.15;;;8.45;;
52610;SDS011;38727;40.130;18.292;2024-03-08T02:25:58;16.33;;;9.10;;
52610;SDS011;38727;40.130;18.292;2024-03-08T02:28:28;20.05;;;9.30;;
52610;SDS011;38727;40.130;18.292;2024-03-08T02:30:59;18.55;;;10.52;;
52610;SDS011;38727;40.130;18.292;2024-03-08T02:33:29;13.73;;;9.38;;
52610;SDS011;38727;40.130;18.292;2024-03-08T02:36:02;18.60;;;10.38;;
52610;SDS011;38727;40.130;18.292;2024-03-08T02:38:32;13.88;;;9.00;;
52610;SDS011;38727;40.130;18.292;2024-03-08T02:41:02;15.40;;;9.45;;
52610;SDS011;38727;40.130;18.292;2024-03-08T02:43:34;18.35;;;10.15;;
52610;SDS011;38727;40.130;18.292;2024-03-08T02:46:05;18.30;;;9.93;;
52610;SDS011;38727;40.130;18.292;2024-03-08T02:48:35;16.77;;;10.15;;
52610;SDS011;38727;40.130;18.292;2024-03-08T02:51:08;18.55;;;10.18;;
52610;SDS011;38727;40.130;18.292;2024-03-08T02:53:39;20.52;;;11.05;;
52610;SDS011;38727;40.130;18.292;2024-03-08T02:56:09;20.38;;;10.45;;
52610;SDS011;38727;40.130;18.292;2024-03-08T02:58:44;16.50;;;10.07;;
52610;SDS011;38727;40.130;18.292;2024-03-08T03:01:16;20.80;;;9.73;;
52610;SDS011;38727;40.130;18.292;2024-03-08T03:03:48;15.98;;;10.38;;
52610;SDS011;38727;40.130;18.292;2024-03-08T03:06:20;19.95;;;11.55;;
52610;SDS011;38727;40.130;18.292;2024-03-08T03:08:51;19.40;;;9.93;;
52610;SDS011;38727;40.130;18.292;2024-03-08T03:11:22;17.30;;;10.18;;
52610;SDS011;38727;40.130;18.292;2024-03-08T03:13:53;21.08;;;10.07;;
52610;SDS011;38727;40.130;18.292;2024-03-08T03:16:23;26.13;;;12.90;;
52610;SDS011;38727;40.130;18.292;2024-03-08T03:18:54;29.17;;;14.93;;
52610;SDS011;38727;40.130;18.292;2024-03-08T03:21:29;32.33;;;16.08;;
52610;SDS011;38727;40.130;18.292;2024-03-08T03:24:00;39.50;;;18.85;;
52610;SDS011;38727;40.130;18.292;2024-03-08T03:26:32;33.50;;;16.17;;
52610;SDS011;38727;40.130;18.292;2024-03-08T03:29:03;38.63;;;18.83;;
52610;SDS011;38727;40.130;18.292;2024-03-08T03:31:34;37.30;;;17.27;;
52610;SDS011;38727;40.130;18.292;2024-03-08T03:34:05;31.00;;;16.63;;
52610;SDS011;38727;40.130;18.292;2024-03-08T03:36:38;38.95;;;18.73;;
52610;SDS011;38727;40.130;18.292;2024-03-08T03:39:12;52.00;;;23.65;;
52610;SDS011;38727;40.130;18.292;2024-03-08T03:41:44;60.85;;;28.98;;
52610;SDS011;38727;40.130;18.292;2024-03-08T03:44:14;46.35;;;22.85;;
52610;SDS011;38727;40.130;18.292;2024-03-08T03:46:53;51.10;;;23.67;;
52610;SDS011;38727;40.130;18.292;2024-03-08T03:49:24;50.28;;;22.98;;
52610;SDS011;38727;40.130;18.292;2024-03-08T03:51:56;46.67;;;21.73;;
52610;SDS011;38727;40.130;18.292;2024-03-08T03:54:27;39.33;;;19.95;;
52610;SDS011;38727;40.130;18.292;2024-03-08T03:56:58;40.25;;;18.75;;
52610;SDS011;38727;40.130;18.292;2024-03-08T03:59:28;39.63;;;17.42;;
52610;SDS011;38727;40.130;18.292;2024-03-08T04:01:59;28.30;;;15.43;;
52610;SDS011;38727;40.130;18.292;2024-03-08T04:04:29;26.73;;;13.60;;
52610;SDS011;38727;40.130;18.292;2024-03-08T04:07:00;31.30;;;14.73;;
52610;SDS011;38727;40.130;18.292;2024-03-08T04:09:31;32.22;;;16.65;;
52610;SDS011;38727;40.130;18.292;2024-03-08T04:12:03;30.30;;;17.05;;
52610;SDS011;38727;40.130;18.292;2024-03-08T04:14:35;28.98;;;14.38;;
52610;SDS011;38727;40.130;18.292;2024-03-08T04:17:07;30.58;;;14.85;;
52610;SDS011;38727;40.130;18.292;2024-03-08T04:19:38;27.90;;;14.57;;
52610;SDS011;38727;40.130;18.292;2024-03-08T04:22:11;25.67;;;11.23;;
52610;SDS011;38727;40.130;18.292;2024-03-08T04:24:42;22.10;;;9.80;;
52610;SDS011;38727;40.130;18.292;2024-03-08T04:27:13;21.95;;;10.13;;
52610;SDS011;38727;40.130;18.292;2024-03-08T04:29:44;17.92;;;8.98;;
52610;SDS011;38727;40.130;18.292;2024-03-08T04:32:15;17.88;;;9.27;;
52610;SDS011;38727;40.130;18.292;2024-03-08T04:34:46;19.08;;;8.93;;
52610;SDS011;38727;40.130;18.292;2024-03-08T04:37:19;19.25;;;9.27;;
52610;SDS011;38727;40.130;18.292;2024-03-08T04:39:50;16.90;;;9.13;;
52610;SDS011;38727;40.130;18.292;2024-03-08T04:42:20;20.38;;;9.65;;
52610;SDS011;38727;40.130;18.292;2024-03-08T04:44:51;19.98;;;10.00;;
52610;SDS011;38727;40.130;18.292;2024-03-08T04:47:21;19.27;;;8.82;;
52610;SDS011;38727;40.130;18.292;2024-03-08T04:49:58;16.50;;;9.68;;
52610;SDS011;38727;40.130;18.292;2024-03-08T04:52:30;19.20;;;8.98;;
52610;SDS011;38727;40.130;18.292;2024-03-08T04:55:00;17.70;;;8.80;;
52610;SDS011;38727;40.130;18.292;2024-03-08T04:57:32;19.85;;;9.13;;
52610;SDS011;38727;40.130;18.292;2024-03-08T05:00:03;18.13;;;8.88;;
52610;SDS011;38727;40.130;18.292;2024-03-08T05:02:40;15.55;;;8.70;;
52610;SDS011;38727;40.130;18.292;2024-03-08T05:05:10;20.00;;;9.20;;
52610;SDS011;38727;40.130;18.292;2024-03-08T05:07:42;19.35;;;8.70;;
52610;SDS011;38727;40.130;18.292;2024-03-08T05:10:14;17.23;;;9.40;;
52610;SDS011;38727;40.130;18.292;2024-03-08T05:12:46;20.63;;;9.57;;
52610;SDS011;38727;40.130;18.292;2024-03-08T05:15:17;20.92;;;10.15;;
52610;SDS011;38727;40.130;18.292;2024-03-08T05:17:48;16.23;;;8.88;;
52610;SDS011;38727;40.130;18.292;2024-03-08T05:20:24;20.38;;;9.52;;
52610;SDS011;38727;40.130;18.292;2024-03-08T05:22:56;21.73;;;11.45;;
52610;SDS011;38727;40.130;18.292;2024-03-08T05:25:27;17.13;;;9.15;;
52610;SDS011;38727;40.130;18.292;2024-03-08T05:27:58;17.83;;;9.25;;
52610;SDS011;38727;40.130;18.292;2024-03-08T05:30:29;18.05;;;9.43;;
52610;SDS011;38727;40.130;18.292;2024-03-08T05:32:59;16.60;;;9.48;;
52610;SDS011;38727;40.130;18.292;2024-03-08T05:35:34;19.55;;;10.02;;
52610;SDS011;38727;40.130;18.292;2024-03-08T05:38:05;18.90;;;10.75;;
52610;SDS011;38727;40.130;18.292;2024-03-08T05:40:36;24.48;;;10.15;;
52610;SDS011;38727;40.130;18.292;2024-03-08T05:43:08;18.25;;;10.20;;
52610;SDS011;38727;40.130;18.292;2024-03-08T05:45:39;21.35;;;10.75;;
52610;SDS011;38727;40.130;18.292;2024-03-08T05:48:10;34.22;;;17.40;;
52610;SDS011;38727;40.130;18.292;2024-03-08T05:50:43;32.45;;;16.10;;
52610;SDS011;38727;40.130;18.292;2024-03-08T05:53:15;29.75;;;16.48;;
52610;SDS011;38727;40.130;18.292;2024-03-08T05:55:46;29.67;;;16.15;;
52610;SDS011;38727;40.130;18.292;2024-03-08T05:58:16;28.50;;;16.25;;
52610;SDS011;38727;40.130;18.292;2024-03-08T06:00:48;26.95;;;15.05;;
52610;SDS011;38727;40.130;18.292;2024-03-08T06:03:18;31.52;;;15.55;;
52610;SDS011;38727;40.130;18.292;2024-03-08T06:05:49;36.75;;;18.30;;
52610;SDS011;38727;40.130;18.292;2024-03-08T06:08:21;40.97;;;20.42;;
52610;SDS011;38727;40.130;18.292;2024-03-08T06:10:58;39.17;;;20.17;;
52610;SDS011;38727;40.130;18.292;2024-03-08T06:13:30;40.63;;;18.17;;
52610;SDS011;38727;40.130;18.292;2024-03-08T06:16:02;36.58;;;17.65;;
52610;SDS011;38727;40.130;18.292;2024-03-08T06:18:32;33.53;;;16.52;;
52610;SDS011;38727;40.130;18.292;2024-03-08T06:21:04;35.85;;;17.48;;
52610;SDS011;38727;40.130;18.292;2024-03-08T06:23:37;29.23;;;14.65;;
52610;SDS011;38727;40.130;18.292;2024-03-08T06:26:07;27.63;;;13.20;;
52610;SDS011;38727;40.130;18.292;2024-03-08T06:28:38;24.27;;;11.65;;
52610;SDS011;38727;40.130;18.292;2024-03-08T06:31:08;20.45;;;11.30;;
52610;SDS011;38727;40.130;18.292;2024-03-08T06:33:39;22.02;;;11.40;;
52610;SDS011;38727;40.130;18.292;2024-03-08T06:36:11;20.52;;;11.05;;
52610;SDS011;38727;40.130;18.292;2024-03-08T06:38:43;25.00;;;11.90;;
52610;SDS011;38727;40.130;18.292;2024-03-08T06:41:14;23.52;;;11.55;;
52610;SDS011;38727;40.130;18.292;2024-03-08T06:43:44;22.55;;;11.00;;
52610;SDS011;38727;40.130;18.292;2024-03-08T06:46:16;22.02;;;9.95;;
52610;SDS011;38727;40.130;18.292;2024-03-08T06:48:47;16.20;;;8.68;;
52610;SDS011;38727;40.130;18.292;2024-03-08T06:51:17;19.27;;;7.78;;
52610;SDS011;38727;40.130;18.292;2024-03-08T06:53:53;17.48;;;6.85;;
52610;SDS011;38727;40.130;18.292;2024-03-08T06:56:24;14.05;;;6.28;;
52610;SDS011;38727;40.130;18.292;2024-03-08T06:58:54;11.35;;;5.68;;
52610;SDS011;38727;40.130;18.292;2024-03-08T07:01:28;11.57;;;5.95;;
52610;SDS011;38727;40.130;18.292;2024-03-08T07:04:00;11.30;;;5.28;;
52610;SDS011;38727;40.130;18.292;2024-03-08T07:06:33;11.10;;;5.28;;
52610;SDS011;38727;40.130;18.292;2024-03-08T07:09:08;12.35;;;5.07;;
52610;SDS011;38727;40.130;18.292;2024-03-08T07:11:39;11.40;;;5.57;;
52610;SDS011;38727;40.130;18.292;2024-03-08T07:14:09;12.32;;;5.18;;
52610;SDS011;38727;40.130;18.292;2024-03-08T07:16:43;20.92;;;5.20;;
52610;SDS011;38727;40.130;18.292;2024-03-08T07:19:13;12.07;;;6.32;;
52610;SDS011;38727;40.130;18.292;2024-03-08T07:21:45;8.93;;;5.38;;
52610;SDS011;38727;40.130;18.292;2024-03-08T07:24:17;11.75;;;6.32;;
52610;SDS011;38727;40.130;18.292;2024-03-08T07:27:08;13.18;;;6.97;;
52610;SDS011;38727;40.130;18.292;2024-03-08T07:29:39;10.10;;;5.25;;
52610;SDS011;38727;40.130;18.292;2024-03-08T07:32:10;11.32;;;6.22;;
52610;SDS011;38727;40.130;18.292;2024-03-08T07:34:49;6.97;;;4.05;;
52610;SDS011;38727;40.130;18.292;2024-03-08T07:37:21;6.72;;;2.92;;
52610;SDS011;38727;40.130;18.292;2024-03-08T07:39:53;7.97;;;2.88;;
52610;SDS011;38727;40.130;18.292;2024-03-08T07:42:24;8.25;;;2.80;;
52610;SDS011;38727;40.130;18.292;2024-03-08T07:45:03;6.75;;;2.78;;
52610;SDS011;38727;40.130;18.292;2024-03-08T07:47:39;6.50;;;3.08;;
52610;SDS011;38727;40.130;18.292;2024-03-08T07:50:10;5.32;;;2.20;;
52610;SDS011;38727;40.130;18.292;2024-03-08T07:52:44;6.78;;;2.22;;
52610;SDS011;38727;40.130;18.292;2024-03-08T07:55:18;8.73;;;1.75;;
52610;SDS011;38727;40.130;18.292;2024-03-08T07:57:52;4.97;;;1.80;;
52610;SDS011;38727;40.130;18.292;2024-03-08T08:00:23;7.15;;;1.70;;
52610;SDS011;38727;40.130;18.292;2024-03-08T08:02:55;5.47;;;2.80;;
52610;SDS011;38727;40.130;18.292;2024-03-08T08:05:26;6.45;;;2.58;;
52610;SDS011;38727;40.130;18.292;2024-03-08T08:07:57;6.63;;;2.40;;
52610;SDS011;38727;40.130;18.292;2024-03-08T08:10:29;6.70;;;2.10;;
52610;SDS011;38727;40.130;18.292;2024-03-08T08:13:01;3.97;;;2.25;;
52610;SDS011;38727;40.130;18.292;2024-03-08T08:15:31;4.70;;;1.95;;
52610;SDS011;38727;40.130;18.292;2024-03-08T08:18:04;2.65;;;1.75;;
52610;SDS011;38727;40.130;18.292;2024-03-08T08:20:35;3.95;;;1.10;;
52610;SDS011;38727;40.130;18.292;2024-03-08T08:23:06;2.85;;;1.20;;
52610;SDS011;38727;40.130;18.292;2024-03-08T08:25:38;2.35;;;0.68;;
52610;SDS011;38727;40.130;18.292;2024-03-08T08:28:09;2.20;;;0.82;;
52610;SDS011;38727;40.130;18.292;2024-03-08T08:30:40;1.15;;;0.50;;
52610;SDS011;38727;40.130;18.292;2024-03-08T08:33:11;2.28;;;0.95;;
52610;SDS011;38727;40.130;18.292;2024-03-08T08:35:42;6.88;;;0.70;;
52610;SDS011;38727;40.130;18.292;2024-03-08T08:38:13;2.22;;;0.60;;
52610;SDS011;38727;40.130;18.292;2024-03-08T08:40:46;2.45;;;0.73;;
52610;SDS011;38727;40.130;18.292;2024-03-08T08:43:17;3.25;;;0.60;;
52610;SDS011;38727;40.130;18.292;2024-03-08T08:45:53;1.70;;;0.95;;
52610;SDS011;38727;40.130;18.292;2024-03-08T08:48:23;1.90;;;1.05;;
52610;SDS011;38727;40.130;18.292;2024-03-08T08:50:54;4.43;;;1.20;;
52610;SDS011;38727;40.130;18.292;2024-03-08T08:53:26;4.43;;;1.05;;
52610;SDS011;38727;40.130;18.292;2024-03-08T08:55:59;2.05;;;0.93;;
52610;SDS011;38727;40.130;18.292;2024-03-08T08:58:30;4.50;;;0.95;;
52610;SDS011;38727;40.130;18.292;2024-03-08T09:01:03;2.20;;;0.63;;
52610;SDS011;38727;40.130;18.292;2024-03-08T09:03:34;3.17;;;0.90;;
52610;SDS011;38727;40.130;18.292;2024-03-08T09:06:05;2.78;;;0.63;;
52610;SDS011;38727;40.130;18.292;2024-03-08T09:08:38;2.75;;;0.70;;
52610;SDS011;38727;40.130;18.292;2024-03-08T09:11:09;2.40;;;0.82;;
52610;SDS011;38727;40.130;18.292;2024-03-08T09:13:40;2.83;;;0.80;;
52610;SDS011;38727;40.130;18.292;2024-03-08T09:16:10;4.68;;;1.00;;
52610;SDS011;38727;40.130;18.292;2024-03-08T09:18:40;4.22;;;0.85;;
52610;SDS011;38727;40.130;18.292;2024-03-08T09:21:11;3.90;;;0.50;;
52610;SDS011;38727;40.130;18.292;2024-03-08T09:23:42;1.25;;;0.50;;
52610;SDS011;38727;40.130;18.292;2024-03-08T09:26:14;1.00;;;0.40;;
52610;SDS011;38727;40.130;18.292;2024-03-08T09:28:45;2.08;;;0.40;;
52610;SDS011;38727;40.130;18.292;2024-03-08T09:31:16;2.92;;;0.40;;
52610;SDS011;38727;40.130;18.292;2024-03-08T09:33:46;2.13;;;0.65;;
52610;SDS011;38727;40.130;18.292;2024-03-08T09:36:17;3.35;;;0.43;;
52610;SDS011;38727;40.130;18.292;2024-03-08T09:38:48;2.83;;;0.70;;
52610;SDS011;38727;40.130;18.292;2024-03-08T09:41:22;1.13;;;0.30;;
52610;SDS011;38727;40.130;18.292;2024-03-08T09:43:53;0.95;;;0.50;;
52610;SDS011;38727;40.130;18.292;2024-03-08T09:46:23;1.10;;;0.50;;
52610;SDS011;38727;40.130;18.292;2024-03-08T09:48:54;3.33;;;0.55;;
52610;SDS011;38727;40.130;18.292;2024-03-08T09:51:25;3.13;;;0.80;;
52610;SDS011;38727;40.130;18.292;2024-03-08T09:53:58;14.57;;;2.60;;
52610;SDS011;38727;40.130;18.292;2024-03-08T09:56:33;1.58;;;0.73;;
52610;SDS011;38727;40.130;18.292;2024-03-08T09:59:06;2.97;;;1.17;;
52610;SDS011;38727;40.130;18.292;2024-03-08T10:02:02;1.40;;;0.40;;
52610;SDS011;38727;40.130;18.292;2024-03-08T10:04:32;1.23;;;0.60;;
52610;SDS011;38727;40.130;18.292;2024-03-08T10:07:05;1.08;;;0.60;;
52610;SDS011;38727;40.130;18.292;2024-03-08T10:09:36;1.85;;;0.60;;
52610;SDS011;38727;40.130;18.292;2024-03-08T10:12:11;0.85;;;0.50;;
52610;SDS011;38727;40.130;18.292;2024-03-08T10:14:43;1.58;;;0.60;;
52610;SDS011;38727;40.130;18.292;2024-03-08T10:17:20;1.08;;;0.60;;
52610;SDS011;38727;40.130;18.292;2024-03-08T10:19:51;1.67;;;0.50;;
52610;SDS011;38727;40.130;18.292;2024-03-08T10:22:24;2.90;;;0.53;;
52610;SDS011;38727;40.130;18.292;2024-03-08T10:24:58;1.58;;;0.75;;
52610;SDS011;38727;40.130;18.292;2024-03-08T10:27:35;1.27;;;0.60;;
52610;SDS011;38727;40.130;18.292;2024-03-08T10:30:12;2.03;;;1.17;;
52610;SDS011;38727;40.130;18.292;2024-03-08T10:32:50;2.22;;;1.02;;
52610;SDS011;38727;40.130;18.292;2024-03-08T10:35:25;1.77;;;0.63;;
52610;SDS011;38727;40.130;18.292;2024-03-08T10:38:01;1.73;;;0.85;;
52610;SDS011;38727;40.130;18.292;2024-03-08T10:40:39;1.60;;;0.80;;
52610;SDS011;38727;40.130;18.292;2024-03-08T10:43:51;1.98;;;0.75;;
52610;SDS011;38727;40.130;18.292;2024-03-08T10:46:40;1.80;;;1.00;;
52610;SDS011;38727;40.130;18.292;2024-03-08T10:49:25;2.08;;;1.38;;
52610;SDS011;38727;40.130;18.292;2024-03-08T10:52:05;2.33;;;1.10;;
52610;SDS011;38727;40.130;18.292;2024-03-08T10:54:42;3.88;;;1.77;;
52610;SDS011;38727;40.130;18.292;2024-03-08T10:57:20;3.00;;;1.00;;
52610;SDS011;38727;40.130;18.292;2024-03-08T10:59:56;3.83;;;1.13;;
52610;SDS011;38727;40.130;18.292;2024-03-08T11:02:38;2.60;;;1.08;;
52610;SDS011;38727;40.130;18.292;2024-03-08T11:05:13;3.50;;;1.27;;
52610;SDS011;38727;40.130;18.292;2024-03-08T11:08:06;2.00;;;1.10;;
52610;SDS011;38727;40.130;18.292;2024-03-08T11:10:57;2.65;;;1.10;;
52610;SDS011;38727;40.130;18.292;2024-03-08T11:13:33;4.53;;;1.38;;
52610;SDS011;38727;40.130;18.292;2024-03-08T11:16:36;2.40;;;1.15;;
52610;SDS011;38727;40.130;18.292;2024-03-08T11:19:27;2.95;;;1.30;;
52610;SDS011;38727;40.130;18.292;2024-03-08T11:22:07;4.32;;;1.77;;
52610;SDS011;38727;40.130;18.292;2024-03-08T11:24:58;2.50;;;1.60;;
52610;SDS011;38727;40.130;18.292;2024-03-08T11:27:35;3.15;;;1.38;;
52610;SDS011;38727;40.130;18.292;2024-03-08T11:30:10;3.40;;;1.30;;
52610;SDS011;38727;40.130;18.292;2024-03-08T11:32:51;3.15;;;0.90;;
52610;SDS011;38727;40.130;18.292;2024-03-08T11:35:25;1.92;;;1.05;;
52610;SDS011;38727;40.130;18.292;2024-03-08T11:38:09;3.17;;;1.40;;
52610;SDS011;38727;40.130;18.292;2024-03-08T11:40:45;2.05;;;1.20;;
52610;SDS011;38727;40.130;18.292;2024-03-08T11:43:18;3.72;;;1.20;;
52610;SDS011;38727;40.130;18.292;2024-03-08T11:46:07;2.13;;;1.45;;
52610;SDS011;38727;40.130;18.292;2024-03-08T11:48:40;2.90;;;1.13;;
52610;SDS011;38727;40.130;18.292;2024-03-08T11:51:20;8.40;;;1.73;;
52610;SDS011;38727;40.130;18.292;2024-03-08T11:53:55;4.28;;;1.40;;
52610;SDS011;38727;40.130;18.292;2024-03-08T11:56:35;5.85;;;1.48;;
52610;SDS011;38727;40.130;18.292;2024-03-08T11:59:10;3.42;;;1.08;;
52610;SDS011;38727;40.130;18.292;2024-03-08T12:01:59;3.78;;;1.08;;
52610;SDS011;38727;40.130;18.292;2024-03-08T12:04:31;2.15;;;0.88;;
52610;SDS011;38727;40.130;18.292;2024-03-08T12:07:13;2.60;;;0.90;;
52610;SDS011;38727;40.130;18.292;2024-03-08T12:12:56;2.33;;;0.80;;
52610;SDS011;38727;40.130;18.292;2024-03-08T12:15:34;1.67;;;0.57;;
52610;SDS011;38727;40.130;18.292;2024-03-08T12:18:11;4.68;;;0.98;;
52610;SDS011;38727;40.130;18.292;2024-03-08T12:20:49;2.53;;;1.20;;
52610;SDS011;38727;40.130;18.292;2024-03-08T12:23:28;3.22;;;1.02;;
52610;SDS011;38727;40.130;18.292;2024-03-08T12:26:09;8.90;;;2.03;;
52610;SDS011;38727;40.130;18.292;2024-03-08T12:28:42;1.50;;;0.70;;
52610;SDS011;38727;40.130;18.292;2024-03-08T12:31:23;2.03;;;1.25;;
52610;SDS011;38727;40.130;18.292;2024-03-08T12:33:56;2.35;;;0.90;;
52610;SDS011;38727;40.130;18.292;2024-03-08T12:36:39;3.13;;;1.15;;
52610;SDS011;38727;40.130;18.292;2024-03-08T12:39:25;4.00;;;1.20;;
52610;SDS011;38727;40.130;18.292;2024-03-08T12:41:57;2.80;;;1.20;;
52610;SDS011;38727;40.130;18.292;2024-03-08T12:44:30;2.13;;;0.93;;
52610;SDS011;38727;40.130;18.292;2024-03-08T12:47:28;1.02;;;0.70;;
52610;SDS011;38727;40.130;18.292;2024-03-08T12:50:00;2.70;;;0.88;;
52610;SDS011;38727;40.130;18.292;2024-03-08T12:52:33;2.42;;;1.00;;
52610;SDS011;38727;40.130;18.292;2024-03-08T12:55:04;2.17;;;1.00;;
52610;SDS011;38727;40.130;18.292;2024-03-08T12:57:39;3.15;;;1.42;;
52610;SDS011;38727;40.130;18.292;2024-03-08T13:00:10;7.75;;;1.10;;
52610;SDS011;38727;40.130;18.292;2024-03-08T13:02:47;2.25;;;0.80;;
52610;SDS011;38727;40.130;18.292;2024-03-08T13:05:22;1.70;;;0.73;;
52610;SDS011;38727;40.130;18.292;2024-03-08T13:08:08;5.30;;;1.30;;
52610;SDS011;38727;40.130;18.292;2024-03-08T13:10:43;3.15;;;0.82;;
52610;SDS011;38727;40.130;18.292;2024-03-08T13:13:20;3.40;;;1.30;;
52610;SDS011;38727;40.130;18.292;2024-03-08T13:15:56;4.30;;;1.30;;
52610;SDS011;38727;40.130;18.292;2024-03-08T13:18:31;2.33;;;0.90;;
52610;SDS011;38727;40.130;18.292;2024-03-08T13:21:08;2.53;;;1.17;;
52610;SDS011;38727;40.130;18.292;2024-03-08T13:26:23;3.72;;;1.30;;
52610;SDS011;38727;40.130;18.292;2024-03-08T13:28:57;3.53;;;1.00;;
52610;SDS011;38727;40.130;18.292;2024-03-08T13:31:35;3.35;;;1.00;;
52610;SDS011;38727;40.130;18.292;2024-03-08T13:34:13;2.40;;;0.82;;
52610;SDS011;38727;40.130;18.292;2024-03-08T13:36:46;1.95;;;0.88;;
52610;SDS011;38727;40.130;18.292;2024-03-08T13:39:21;2.03;;;0.50;;
52610;SDS011;38727;40.130;18.292;2024-03-08T13:41:55;0.80;;;0.40;;
52610;SDS011;38727;40.130;18.292;2024-03-08T13:44:31;9.18;;;2.97;;
52610;SDS011;38727;40.130;18.292;2024-03-08T13:47:02;13.45;;;4.32;;
52610;SDS011;38727;40.130;18.292;2024-03-08T13:49:34;12.45;;;5.28;;
52610;SDS011;38727;40.130;18.292;2024-03-08T13:52:11;8.15;;;3.45;;
52610;SDS011;38727;40.130;18.292;2024-03-08T13:54:49;5.25;;;2.35;;
52610;SDS011;38727;40.130;18.292;2024-03-08T13:57:24;3.72;;;1.08;;
52610;SDS011;38727;40.130;18.292;2024-03-08T13:59:56;2.72;;;0.60;;
52610;SDS011;38727;40.130;18.292;2024-03-08T14:02:27;1.77;;;0.80;;
52610;SDS011;38727;40.130;18.292;2024-03-08T14:05:03;3.30;;;0.60;;
52610;SDS011;38727;40.130;18.292;2024-03-08T14:07:39;1.27;;;0.52;;
52610;SDS011;38727;40.130;18.292;2024-03-08T14:10:13;1.60;;;0.88;;
52610;SDS011;38727;40.130;18.292;2024-03-08T14:12:50;1.73;;;1.10;;
52610;SDS011;38727;40.130;18.292;2024-03-08T14:15:35;1.58;;;0.70;;
52610;SDS011;38727;40.130;18.292;2024-03-08T14:18:15;1.92;;;0.70;;
52610;SDS011;38727;40.130;18.292;2024-03-08T14:20:46;1.98;;;0.52;;
52610;SDS011;38727;40.130;18.292;2024-03-08T14:23:16;1.50;;;0.60;;
52610;SDS011;38727;40.130;18.292;2024-03-08T14:25:54;2.63;;;0.60;;
52610;SDS011;38727;40.130;18.292;2024-03-08T14:28:29;2.67;;;0.75;;
52610;SDS011;38727;40.130;18.292;2024-03-08T14:31:03;1.55;;;1.10;;
52610;SDS011;38727;40.130;18.292;2024-03-08T14:33:44;2.13;;;0.68;;
52610;SDS011;38727;40.130;18.292;2024-03-08T14:36:21;0.85;;;0.70;;
52610;SDS011;38727;40.130;18.292;2024-03-08T14:38:58;1.95;;;0.57;;
52610;SDS011;38727;40.130;18.292;2024-03-08T14:41:37;1.98;;;0.50;;
52610;SDS011;38727;40.130;18.292;2024-03-08T14:44:12;1.92;;;0.57;;
52610;SDS011;38727;40.130;18.292;2024-03-08T14:46:44;1.60;;;0.52;;
52610;SDS011;38727;40.130;18.292;2024-03-08T14:49:26;2.17;;;1.05;;
52610;SDS011;38727;40.130;18.292;2024-03-08T14:52:00;2.33;;;0.75;;
52610;SDS011;38727;40.130;18.292;2024-03-08T14:54:39;3.13;;;0.73;;
52610;SDS011;38727;40.130;18.292;2024-03-08T14:57:40;2.80;;;0.75;;
52610;SDS011;38727;40.130;18.292;2024-03-08T15:00:20;2.53;;;0.80;;
52610;SDS011;38727;40.130;18.292;2024-03-08T15:03:05;2.08;;;0.50;;
52610;SDS011;38727;40.130;18.292;2024-03-08T15:05:39;2.00;;;0.70;;
52610;SDS011;38727;40.130;18.292;2024-03-08T15:08:22;1.83;;;0.98;;
52610;SDS011;38727;40.130;18.292;2024-03-08T15:11:00;2.40;;;0.93;;
52610;SDS011;38727;40.130;18.292;2024-03-08T15:13:36;1.30;;;0.70;;